PWSweather.com
Personal Weather Stations
Station Observations
PICKERING
North Yorkshire, PickeringGB

North YorkshirePickeringGB

Lat: 54.2494, Lon: -0.7725

Elevation: 192

Station Type: Oregon Scientific WMR100

http://www.yorkshirewalker.co.uk/weather/

High Low Average
Temperature 41.4°F5.2°C 34.3°F1.3°C 37.8°F3.2°C
Dew Point 35.6°F2.0°C 28.4°F-2.0°C 31.6°F-0.2°C
Winds 4.7 mph 7.6 kmh Calm Calm 1.0 mph SSW1.6 kmh SSW
Wind Gusts 10.1 mph16.3 kmh -- 2.0 mph3.2 kmh
Humidity 82% 64% 77%
Pressure 30.63 in1037.3 mb 30.54 in1034.2 mb -
Precipitation 0.06 in1.5 mm - -
Hour Temp Dew Point Humidity Winds Wind Gusts Pressure Precip Precip Rate Daily Precip Total
12:00 AM 40.3°F4.6°C 30.2°F-1.0°C 64% 2.5 mph NNW4.0 kmh NNW 6.3 mph10.1 kmh 30.54 in1034.2 mb 0.00 in0.0 mm 0.00 in0.0 mm 0.00 in0.0 mm
12:05 AM 40.3°F4.6°C 30.2°F-1.0°C 64% 3.0 mph NNW4.8 kmh NNW 6.3 mph10.1 kmh 30.54 in1034.2 mb 0.00 in0.0 mm 0.00 in0.0 mm 0.00 in0.0 mm
12:10 AM 40.1°F4.5°C 30.2°F-1.0°C 64% 3.1 mph NW5.0 kmh NW 4.7 mph7.6 kmh 30.54 in1034.2 mb 0.00 in0.0 mm 0.00 in0.0 mm 0.00 in0.0 mm
12:15 AM 40.1°F4.5°C 30.2°F-1.0°C 65% 3.1 mph NW5.0 kmh NW 4.5 mph7.2 kmh 30.54 in1034.2 mb 0.00 in0.0 mm 0.00 in0.0 mm 0.00 in0.0 mm
12:20 AM 40.1°F4.5°C 30.2°F-1.0°C 65% 3.1 mph NNW5.0 kmh NNW 5.6 mph9.0 kmh 30.54 in1034.2 mb 0.00 in0.0 mm 0.00 in0.0 mm 0.00 in0.0 mm
12:25 AM 39.9°F4.4°C 30.2°F-1.0°C 66% 3.4 mph N5.5 kmh N 5.6 mph9.0 kmh 30.54 in1034.2 mb 0.00 in0.0 mm 0.00 in0.0 mm 0.00 in0.0 mm
12:30 AM 39.9°F4.4°C 30.2°F-1.0°C 66% 3.7 mph NNW6.0 kmh NNW 5.6 mph9.0 kmh 30.54 in1034.2 mb 0.00 in0.0 mm 0.00 in0.0 mm 0.00 in0.0 mm
12:35 AM 39.9°F4.4°C 30.2°F-1.0°C 66% 3.0 mph NW4.8 kmh NW 5.6 mph9.0 kmh 30.54 in1034.2 mb 0.00 in0.0 mm 0.00 in0.0 mm 0.00 in0.0 mm
12:40 AM 39.9°F4.4°C 30.2°F-1.0°C 66% 1.7 mph NW2.7 kmh NW 3.4 mph5.5 kmh 30.54 in1034.2 mb 0.00 in0.0 mm 0.00 in0.0 mm 0.00 in0.0 mm
12:45 AM 39.9°F4.4°C 30.2°F-1.0°C 66% 1.9 mph NNW3.1 kmh NNW 3.8 mph6.1 kmh 30.54 in1034.2 mb 0.00 in0.0 mm 0.00 in0.0 mm 0.00 in0.0 mm
12:50 AM 39.9°F4.4°C 30.2°F-1.0°C 66% 2.5 mph N4.0 kmh N 3.8 mph6.1 kmh 30.54 in1034.2 mb 0.00 in0.0 mm 0.00 in0.0 mm 0.00 in0.0 mm
12:55 AM 39.7°F4.3°C 30.2°F-1.0°C 66% 1.8 mph NNW2.9 kmh NNW 3.8 mph6.1 kmh 30.54 in1034.2 mb 0.00 in0.0 mm 0.00 in0.0 mm 0.00 in0.0 mm
01:00 AM 39.6°F4.2°C 30.2°F-1.0°C 65% 0.9 mph NW1.4 kmh NW 2.9 mph4.7 kmh 30.54 in1034.2 mb 0.00 in0.0 mm 0.00 in0.0 mm 0.00 in0.0 mm
01:05 AM 39.7°F4.3°C 30.2°F-1.0°C 65% 2.3 mph N3.7 kmh N 6.5 mph10.5 kmh 30.54 in1034.2 mb 0.00 in0.0 mm 0.00 in0.0 mm 0.00 in0.0 mm
01:10 AM 39.7°F4.3°C 30.2°F-1.0°C 66% 4.0 mph NNW6.4 kmh NNW 6.5 mph10.5 kmh 30.54 in1034.2 mb 0.00 in0.0 mm 0.00 in0.0 mm 0.00 in0.0 mm
01:15 AM 39.7°F4.3°C 30.2°F-1.0°C 66% 3.4 mph NNW5.5 kmh NNW 6.3 mph10.1 kmh 30.54 in1034.2 mb 0.00 in0.0 mm 0.00 in0.0 mm 0.00 in0.0 mm
01:20 AM 39.6°F4.2°C 30.2°F-1.0°C 66% 2.5 mph N4.0 kmh N 4.0 mph6.4 kmh 30.57 in1035.2 mb 0.00 in0.0 mm 0.00 in0.0 mm 0.00 in0.0 mm
01:25 AM 39.6°F4.2°C 30.2°F-1.0°C 66% 1.6 mph N2.6 kmh N 4.0 mph6.4 kmh 30.57 in1035.2 mb 0.00 in0.0 mm 0.00 in0.0 mm 0.00 in0.0 mm
01:30 AM 39.4°F4.1°C 28.4°F-2.0°C 66% 0.7 mph NW1.1 kmh NW 2.5 mph4.0 kmh 30.57 in1035.2 mb 0.00 in0.0 mm 0.00 in0.0 mm 0.00 in0.0 mm
01:35 AM 39.4°F4.1°C 30.2°F-1.0°C 67% 0.7 mph W1.1 kmh W 2.2 mph3.5 kmh 30.57 in1035.2 mb 0.00 in0.0 mm 0.00 in0.0 mm 0.00 in0.0 mm
01:40 AM 39.6°F4.2°C 30.2°F-1.0°C 67% 1.9 mph WNW3.1 kmh WNW 3.8 mph6.1 kmh 30.57 in1035.2 mb 0.00 in0.0 mm 0.00 in0.0 mm 0.00 in0.0 mm
01:45 AM 39.4°F4.1°C 30.2°F-1.0°C 67% 1.6 mph NW2.6 kmh NW 3.8 mph6.1 kmh 30.57 in1035.2 mb 0.00 in0.0 mm 0.00 in0.0 mm 0.00 in0.0 mm
01:50 AM 39.6°F4.2°C 30.2°F-1.0°C 67% 1.9 mph NW3.1 kmh NW 4.0 mph6.4 kmh 30.57 in1035.2 mb 0.00 in0.0 mm 0.00 in0.0 mm 0.00 in0.0 mm
01:55 AM 39.6°F4.2°C 30.2°F-1.0°C 66% 3.0 mph N4.8 kmh N 4.3 mph6.9 kmh 30.57 in1035.2 mb 0.00 in0.0 mm 0.00 in0.0 mm 0.00 in0.0 mm
02:00 AM 39.9°F4.4°C 30.2°F-1.0°C 66% 4.2 mph N6.8 kmh N 7.4 mph11.9 kmh 30.57 in1035.2 mb 0.00 in0.0 mm 0.00 in0.0 mm 0.00 in0.0 mm
02:05 AM 39.9°F4.4°C 30.2°F-1.0°C 65% 3.7 mph N6.0 kmh N 7.4 mph11.9 kmh 30.57 in1035.2 mb 0.00 in0.0 mm 0.00 in0.0 mm 0.00 in0.0 mm
02:10 AM 39.7°F4.3°C 30.2°F-1.0°C 65% 2.5 mph NNW4.0 kmh NNW 5.4 mph8.7 kmh 30.57 in1035.2 mb 0.00 in0.0 mm 0.00 in0.0 mm 0.00 in0.0 mm
02:15 AM 39.9°F4.4°C 30.2°F-1.0°C 65% 3.3 mph NNW5.3 kmh NNW 5.8 mph9.3 kmh 30.57 in1035.2 mb 0.00 in0.0 mm 0.00 in0.0 mm 0.00 in0.0 mm
02:20 AM 39.7°F4.3°C 30.2°F-1.0°C 65% 2.6 mph NW4.2 kmh NW 5.8 mph9.3 kmh 30.57 in1035.2 mb 0.00 in0.0 mm 0.00 in0.0 mm 0.00 in0.0 mm
02:25 AM 39.7°F4.3°C 30.2°F-1.0°C 65% 1.6 mph NNW2.6 kmh NNW 4.3 mph6.9 kmh 30.57 in1035.2 mb 0.00 in0.0 mm 0.00 in0.0 mm 0.00 in0.0 mm
02:30 AM 39.7°F4.3°C 30.2°F-1.0°C 65% 1.9 mph N3.1 kmh N 5.4 mph8.7 kmh 30.57 in1035.2 mb 0.00 in0.0 mm 0.00 in0.0 mm 0.00 in0.0 mm
02:35 AM 39.9°F4.4°C 30.2°F-1.0°C 66% 3.2 mph N5.1 kmh N 5.4 mph8.7 kmh 30.57 in1035.2 mb 0.00 in0.0 mm 0.00 in0.0 mm 0.00 in0.0 mm
02:40 AM 39.7°F4.3°C 30.2°F-1.0°C 67% 3.7 mph N6.0 kmh N 5.4 mph8.7 kmh 30.57 in1035.2 mb 0.00 in0.0 mm 0.00 in0.0 mm 0.00 in0.0 mm
02:45 AM 39.7°F4.3°C 30.2°F-1.0°C 67% 3.3 mph NNE5.3 kmh NNE 5.4 mph8.7 kmh 30.57 in1035.2 mb 0.00 in0.0 mm 0.00 in0.0 mm 0.00 in0.0 mm
02:50 AM 39.6°F4.2°C 30.2°F-1.0°C 67% 2.2 mph N3.5 kmh N 5.4 mph8.7 kmh 30.60 in1036.2 mb 0.00 in0.0 mm 0.00 in0.0 mm 0.00 in0.0 mm
02:55 AM 39.6°F4.2°C 30.2°F-1.0°C 67% 1.8 mph NNW2.9 kmh NNW 4.3 mph6.9 kmh 30.60 in1036.2 mb 0.00 in0.0 mm 0.00 in0.0 mm 0.00 in0.0 mm
03:00 AM 39.6°F4.2°C 30.2°F-1.0°C 67% 2.2 mph NW3.5 kmh NW 4.3 mph6.9 kmh 30.60 in1036.2 mb 0.00 in0.0 mm 0.00 in0.0 mm 0.00 in0.0 mm
03:05 AM 39.7°F4.3°C 30.2°F-1.0°C 67% 2.6 mph NW4.2 kmh NW 6.5 mph10.5 kmh 30.57 in1035.2 mb 0.00 in0.0 mm 0.00 in0.0 mm 0.00 in0.0 mm
03:10 AM 39.6°F4.2°C 30.2°F-1.0°C 67% 2.0 mph NW3.2 kmh NW 6.5 mph10.5 kmh 30.57 in1035.2 mb 0.00 in0.0 mm 0.00 in0.0 mm 0.00 in0.0 mm
03:15 AM 39.6°F4.2°C 30.2°F-1.0°C 67% 1.8 mph NW2.9 kmh NW 3.8 mph6.1 kmh 30.57 in1035.2 mb 0.00 in0.0 mm 0.00 in0.0 mm 0.00 in0.0 mm
03:20 AM 39.6°F4.2°C 30.2°F-1.0°C 67% 1.0 mph NW1.6 kmh NW 3.4 mph5.5 kmh 30.60 in1036.2 mb 0.00 in0.0 mm 0.00 in0.0 mm 0.00 in0.0 mm
03:25 AM 39.6°F4.2°C 30.2°F-1.0°C 67% 0.8 mph N1.3 kmh N 3.4 mph5.5 kmh 30.60 in1036.2 mb 0.00 in0.0 mm 0.00 in0.0 mm 0.00 in0.0 mm
03:30 AM 39.7°F4.3°C 30.2°F-1.0°C 67% 2.7 mph N4.3 kmh N 10.1 mph16.3 kmh 30.60 in1036.2 mb 0.00 in0.0 mm 0.00 in0.0 mm 0.00 in0.0 mm
03:35 AM 39.6°F4.2°C 30.2°F-1.0°C 67% 4.7 mph N7.6 kmh N 10.1 mph16.3 kmh 30.60 in1036.2 mb 0.00 in0.0 mm 0.00 in0.0 mm 0.00 in0.0 mm
03:40 AM 39.4°F4.1°C 30.2°F-1.0°C 68% 2.9 mph NNE4.7 kmh NNE 6.3 mph10.1 kmh 30.60 in1036.2 mb 0.00 in0.0 mm 0.00 in0.0 mm 0.00 in0.0 mm
03:45 AM 39.2°F4.0°C 30.2°F-1.0°C 68% 1.0 mph N1.6 kmh N 2.9 mph4.7 kmh 30.60 in1036.2 mb 0.00 in0.0 mm 0.00 in0.0 mm 0.00 in0.0 mm
03:50 AM 39.4°F4.1°C 30.2°F-1.0°C 68% 2.9 mph N4.7 kmh N 6.5 mph10.5 kmh 30.60 in1036.2 mb 0.00 in0.0 mm 0.00 in0.0 mm 0.00 in0.0 mm
03:55 AM 39.4°F4.1°C 30.2°F-1.0°C 69% 4.4 mph NNW7.1 kmh NNW 6.5 mph10.5 kmh 30.60 in1036.2 mb 0.00 in0.0 mm 0.00 in0.0 mm 0.00 in0.0 mm
04:00 AM 38.8°F3.8°C 30.2°F-1.0°C 70% 3.8 mph NNW6.1 kmh NNW 7.4 mph11.9 kmh 30.60 in1036.2 mb 0.00 in0.0 mm 0.00 in0.0 mm 0.00 in0.0 mm
04:05 AM 38.7°F3.7°C 30.2°F-1.0°C 71% 3.4 mph NNW5.5 kmh NNW 7.4 mph11.9 kmh 30.60 in1036.2 mb 0.00 in0.0 mm 0.00 in0.0 mm 0.00 in0.0 mm
04:10 AM 38.7°F3.7°C 30.2°F-1.0°C 72% 2.6 mph NNW4.2 kmh NNW 3.4 mph5.5 kmh 30.60 in1036.2 mb 0.00 in0.0 mm 0.00 in0.0 mm 0.00 in0.0 mm
04:15 AM 38.7°F3.7°C 30.2°F-1.0°C 72% 2.2 mph NW3.5 kmh NW 4.3 mph6.9 kmh 30.60 in1036.2 mb 0.00 in0.0 mm 0.00 in0.0 mm 0.00 in0.0 mm
04:20 AM 38.7°F3.7°C 30.2°F-1.0°C 72% 3.0 mph NW4.8 kmh NW 5.8 mph9.3 kmh 30.60 in1036.2 mb 0.00 in0.0 mm 0.00 in0.0 mm 0.00 in0.0 mm
04:25 AM 38.5°F3.6°C 30.2°F-1.0°C 72% 3.8 mph NW6.1 kmh NW 5.8 mph9.3 kmh 30.60 in1036.2 mb 0.00 in0.0 mm 0.00 in0.0 mm 0.00 in0.0 mm
04:30 AM 38.5°F3.6°C 30.2°F-1.0°C 73% 3.4 mph WNW5.5 kmh WNW 5.8 mph9.3 kmh 30.60 in1036.2 mb 0.00 in0.0 mm 0.00 in0.0 mm 0.00 in0.0 mm
04:35 AM 38.5°F3.6°C 30.2°F-1.0°C 73% 2.7 mph NW4.3 kmh NW 4.0 mph6.4 kmh 30.60 in1036.2 mb 0.00 in0.0 mm 0.00 in0.0 mm 0.00 in0.0 mm
04:40 AM 38.3°F3.5°C 30.2°F-1.0°C 73% 1.8 mph NW2.9 kmh NW 4.0 mph6.4 kmh 30.60 in1036.2 mb 0.00 in0.0 mm 0.00 in0.0 mm 0.00 in0.0 mm
04:45 AM 38.5°F3.6°C 30.2°F-1.0°C 73% 1.2 mph NW1.9 kmh NW 2.9 mph4.7 kmh 30.60 in1036.2 mb 0.00 in0.0 mm 0.00 in0.0 mm 0.00 in0.0 mm
04:50 AM 38.5°F3.6°C 30.2°F-1.0°C 73% 1.2 mph NNW1.9 kmh NNW 2.9 mph4.7 kmh 30.60 in1036.2 mb 0.00 in0.0 mm 0.00 in0.0 mm 0.00 in0.0 mm
04:55 AM 38.7°F3.7°C 30.2°F-1.0°C 73% 1.1 mph NW1.8 kmh NW 2.2 mph3.5 kmh 30.60 in1036.2 mb 0.00 in0.0 mm 0.00 in0.0 mm 0.00 in0.0 mm
05:00 AM 38.7°F3.7°C 30.2°F-1.0°C 73% 1.2 mph NW1.9 kmh NW 3.8 mph6.1 kmh 30.60 in1036.2 mb 0.00 in0.0 mm 0.00 in0.0 mm 0.00 in0.0 mm
05:05 AM 38.7°F3.7°C 32.0°F0.0°C 74% 2.0 mph N3.2 kmh N 4.7 mph7.6 kmh 30.60 in1036.2 mb 0.00 in0.0 mm 0.00 in0.0 mm 0.00 in0.0 mm
05:10 AM 38.7°F3.7°C 32.0°F0.0°C 74% 2.5 mph N4.0 kmh N 4.7 mph7.6 kmh 30.60 in1036.2 mb 0.00 in0.0 mm 0.00 in0.0 mm 0.00 in0.0 mm
05:15 AM 38.7°F3.7°C 32.0°F0.0°C 74% 1.8 mph NNW2.9 kmh NNW 3.6 mph5.8 kmh 30.60 in1036.2 mb 0.00 in0.0 mm 0.00 in0.0 mm 0.00 in0.0 mm
05:20 AM 38.5°F3.6°C 32.0°F0.0°C 74% 1.5 mph NNW2.4 kmh NNW 3.4 mph5.5 kmh 30.60 in1036.2 mb 0.00 in0.0 mm 0.00 in0.0 mm 0.00 in0.0 mm
05:25 AM 38.5°F3.6°C 32.0°F0.0°C 75% 1.7 mph NW2.7 kmh NW 3.4 mph5.5 kmh 30.60 in1036.2 mb 0.00 in0.0 mm 0.00 in0.0 mm 0.00 in0.0 mm
05:30 AM 38.3°F3.5°C 32.0°F0.0°C 75% 1.6 mph NW2.6 kmh NW 3.4 mph5.5 kmh 30.60 in1036.2 mb 0.00 in0.0 mm 0.00 in0.0 mm 0.00 in0.0 mm
05:35 AM 38.3°F3.5°C 32.0°F0.0°C 75% 1.2 mph NW1.9 kmh NW 2.2 mph3.5 kmh 30.60 in1036.2 mb 0.00 in0.0 mm 0.00 in0.0 mm 0.00 in0.0 mm
05:40 AM 38.1°F3.4°C 32.0°F0.0°C 75% 1.1 mph NW1.8 kmh NW 2.0 mph3.2 kmh 30.60 in1036.2 mb 0.00 in0.0 mm 0.00 in0.0 mm 0.00 in0.0 mm
05:45 AM 37.9°F3.3°C 32.0°F0.0°C 75% 1.1 mph NW1.8 kmh NW 2.2 mph3.5 kmh 30.60 in1036.2 mb 0.00 in0.0 mm 0.00 in0.0 mm 0.00 in0.0 mm
05:50 AM 37.8°F3.2°C 32.0°F0.0°C 75% 0.7 mph WNW1.1 kmh WNW 2.2 mph3.5 kmh 30.60 in1036.2 mb 0.00 in0.0 mm 0.00 in0.0 mm 0.00 in0.0 mm
05:55 AM 37.8°F3.2°C 32.0°F0.0°C 76% 0.4 mph W0.6 kmh W 1.1 mph1.8 kmh 30.60 in1036.2 mb 0.00 in0.0 mm 0.00 in0.0 mm 0.00 in0.0 mm
06:00 AM 37.8°F3.2°C 32.0°F0.0°C 76% 0.3 mph WNW0.5 kmh WNW 0.9 mph1.4 kmh 30.60 in1036.2 mb 0.00 in0.0 mm 0.00 in0.0 mm 0.00 in0.0 mm
06:05 AM 37.8°F3.2°C 32.0°F0.0°C 76% 0.1 mph NNW0.2 kmh NNW 0.9 mph1.4 kmh 30.60 in1036.2 mb 0.00 in0.0 mm 0.00 in0.0 mm 0.00 in0.0 mm
06:10 AM 37.8°F3.2°C 32.0°F0.0°C 76% 0.5 mph NW0.8 kmh NW 2.9 mph4.7 kmh 30.60 in1036.2 mb 0.00 in0.0 mm 0.00 in0.0 mm 0.00 in0.0 mm
06:15 AM 37.8°F3.2°C 32.0°F0.0°C 76% 1.0 mph NW1.6 kmh NW 2.9 mph4.7 kmh 30.60 in1036.2 mb 0.00 in0.0 mm 0.00 in0.0 mm 0.00 in0.0 mm
06:20 AM 37.9°F3.3°C 32.0°F0.0°C 76% 1.5 mph NW2.4 kmh NW 3.4 mph5.5 kmh 30.60 in1036.2 mb 0.00 in0.0 mm 0.00 in0.0 mm 0.00 in0.0 mm
06:25 AM 37.9°F3.3°C 32.0°F0.0°C 76% 1.8 mph NW2.9 kmh NW 3.4 mph5.5 kmh 30.60 in1036.2 mb 0.00 in0.0 mm 0.00 in0.0 mm 0.00 in0.0 mm
06:30 AM 37.9°F3.3°C 32.0°F0.0°C 76% 1.5 mph N2.4 kmh N 2.9 mph4.7 kmh 30.60 in1036.2 mb 0.00 in0.0 mm 0.00 in0.0 mm 0.00 in0.0 mm
06:35 AM 37.8°F3.2°C 32.0°F0.0°C 76% 1.0 mph NNW1.6 kmh NNW 2.7 mph4.3 kmh 30.60 in1036.2 mb 0.00 in0.0 mm 0.00 in0.0 mm 0.00 in0.0 mm
06:40 AM 37.8°F3.2°C 32.0°F0.0°C 76% 1.0 mph NW1.6 kmh NW 2.7 mph4.3 kmh 30.60 in1036.2 mb 0.00 in0.0 mm 0.00 in0.0 mm 0.00 in0.0 mm
06:45 AM 37.8°F3.2°C 32.0°F0.0°C 76% 1.4 mph NNW2.3 kmh NNW 3.1 mph5.0 kmh 30.60 in1036.2 mb 0.00 in0.0 mm 0.00 in0.0 mm 0.00 in0.0 mm
06:50 AM 37.6°F3.1°C 30.2°F-1.0°C 76% 1.5 mph NNW2.4 kmh NNW 3.1 mph5.0 kmh 30.60 in1036.2 mb 0.00 in0.0 mm 0.00 in0.0 mm 0.00 in0.0 mm
06:55 AM 37.6°F3.1°C 32.0°F0.0°C 77% 0.5 mph NW0.8 kmh NW 1.1 mph1.8 kmh 30.60 in1036.2 mb 0.00 in0.0 mm 0.00 in0.0 mm 0.00 in0.0 mm
07:00 AM 37.4°F3.0°C 32.0°F0.0°C 77% 0.1 mph WSW0.2 kmh WSW 1.3 mph2.1 kmh 30.60 in1036.2 mb 0.00 in0.0 mm 0.00 in0.0 mm 0.00 in0.0 mm
07:05 AM 37.6°F3.1°C 32.0°F0.0°C 77% 0.4 mph WSW0.6 kmh WSW 1.3 mph2.1 kmh 30.60 in1036.2 mb 0.00 in0.0 mm 0.00 in0.0 mm 0.00 in0.0 mm
07:10 AM 37.4°F3.0°C 32.0°F0.0°C 77% 0.5 mph WSW0.8 kmh WSW 1.3 mph2.1 kmh 30.60 in1036.2 mb 0.00 in0.0 mm 0.00 in0.0 mm 0.00 in0.0 mm
07:15 AM 37.4°F3.0°C 32.0°F0.0°C 77% 0.3 mph WNW0.5 kmh WNW 1.3 mph2.1 kmh 30.60 in1036.2 mb 0.00 in0.0 mm 0.00 in0.0 mm 0.00 in0.0 mm
07:20 AM 37.4°F3.0°C 32.0°F0.0°C 77% 0.3 mph NW0.5 kmh NW 1.1 mph1.8 kmh 30.60 in1036.2 mb 0.00 in0.0 mm 0.00 in0.0 mm 0.00 in0.0 mm
07:25 AM 37.4°F3.0°C 32.0°F0.0°C 77% 0.3 mph NW0.5 kmh NW 1.3 mph2.1 kmh 30.60 in1036.2 mb 0.00 in0.0 mm 0.00 in0.0 mm 0.00 in0.0 mm
07:30 AM 37.4°F3.0°C 32.0°F0.0°C 77% 0.3 mph NW0.5 kmh NW 1.3 mph2.1 kmh 30.60 in1036.2 mb 0.00 in0.0 mm 0.00 in0.0 mm 0.00 in0.0 mm
07:35 AM 37.2°F2.9°C 32.0°F0.0°C 77% 0.6 mph WSW1.0 kmh WSW 2.0 mph3.2 kmh 30.60 in1036.2 mb 0.00 in0.0 mm 0.00 in0.0 mm 0.00 in0.0 mm
07:40 AM 37.4°F3.0°C 32.0°F0.0°C 77% 1.0 mph WSW1.6 kmh WSW 2.0 mph3.2 kmh 30.60 in1036.2 mb 0.00 in0.0 mm 0.00 in0.0 mm 0.00 in0.0 mm
07:45 AM 37.0°F2.8°C 32.0°F0.0°C 77% 0.8 mph WSW1.3 kmh WSW 2.0 mph3.2 kmh 30.60 in1036.2 mb 0.00 in0.0 mm 0.00 in0.0 mm 0.00 in0.0 mm
07:50 AM 37.0°F2.8°C 32.0°F0.0°C 77% 0.3 mph WSW0.5 kmh WSW 0.9 mph1.4 kmh 30.60 in1036.2 mb 0.00 in0.0 mm 0.00 in0.0 mm 0.00 in0.0 mm
07:55 AM 37.0°F2.8°C 32.0°F0.0°C 77% 0.1 mph W0.2 kmh W 0.9 mph1.4 kmh 30.60 in1036.2 mb 0.00 in0.0 mm 0.00 in0.0 mm 0.00 in0.0 mm
08:00 AM 37.0°F2.8°C 32.0°F0.0°C 77% Calm Calm -- 30.60 in1036.2 mb 0.00 in0.0 mm 0.00 in0.0 mm 0.00 in0.0 mm
08:05 AM 37.0°F2.8°C 32.0°F0.0°C 78% 0.2 mph WSW0.3 kmh WSW 0.9 mph1.4 kmh 30.63 in1037.3 mb 0.00 in0.0 mm 0.00 in0.0 mm 0.00 in0.0 mm
08:10 AM 37.0°F2.8°C 32.0°F0.0°C 78% 0.5 mph WNW0.8 kmh WNW 1.6 mph2.6 kmh 30.63 in1037.3 mb 0.00 in0.0 mm 0.00 in0.0 mm 0.00 in0.0 mm
08:15 AM 36.9°F2.7°C 30.2°F-1.0°C 78% 1.3 mph NW2.1 kmh NW 2.9 mph4.7 kmh 30.63 in1037.3 mb 0.00 in0.0 mm 0.00 in0.0 mm 0.00 in0.0 mm
08:20 AM 36.5°F2.5°C 30.2°F-1.0°C 78% 1.8 mph NW2.9 kmh NW 2.9 mph4.7 kmh 30.63 in1037.3 mb 0.00 in0.0 mm 0.00 in0.0 mm 0.00 in0.0 mm
08:25 AM 36.5°F2.5°C 30.2°F-1.0°C 78% 1.4 mph NW2.3 kmh NW 2.5 mph4.0 kmh 30.63 in1037.3 mb 0.00 in0.0 mm 0.00 in0.0 mm 0.00 in0.0 mm
08:30 AM 36.1°F2.3°C 30.2°F-1.0°C 78% 1.2 mph NW1.9 kmh NW 2.5 mph4.0 kmh 30.63 in1037.3 mb 0.00 in0.0 mm 0.00 in0.0 mm 0.00 in0.0 mm
08:35 AM 36.1°F2.3°C 30.2°F-1.0°C 78% 1.1 mph NW1.8 kmh NW 3.1 mph5.0 kmh 30.60 in1036.2 mb 0.00 in0.0 mm 0.00 in0.0 mm 0.00 in0.0 mm
08:40 AM 36.0°F2.2°C 30.2°F-1.0°C 78% 1.1 mph NNW1.8 kmh NNW 3.1 mph5.0 kmh 30.60 in1036.2 mb 0.00 in0.0 mm 0.00 in0.0 mm 0.00 in0.0 mm
08:45 AM 35.8°F2.1°C 30.2°F-1.0°C 78% 0.8 mph NNW1.3 kmh NNW 3.1 mph5.0 kmh 30.60 in1036.2 mb 0.00 in0.0 mm 0.00 in0.0 mm 0.00 in0.0 mm
08:50 AM 35.4°F1.9°C 30.2°F-1.0°C 78% 0.3 mph NW0.5 kmh NW 2.5 mph4.0 kmh 30.63 in1037.3 mb 0.00 in0.0 mm 0.00 in0.0 mm 0.00 in0.0 mm
08:55 AM 35.2°F1.8°C 28.4°F-2.0°C 78% 0.1 mph NNW0.2 kmh NNW 0.9 mph1.4 kmh 30.63 in1037.3 mb 0.00 in0.0 mm 0.00 in0.0 mm 0.00 in0.0 mm
09:00 AM 34.9°F1.6°C 28.4°F-2.0°C 78% Calm Calm -- 30.63 in1037.3 mb 0.00 in0.0 mm 0.00 in0.0 mm 0.00 in0.0 mm
09:05 AM 34.9°F1.6°C 28.4°F-2.0°C 78% Calm Calm -- 30.63 in1037.3 mb 0.00 in0.0 mm 0.00 in0.0 mm 0.00 in0.0 mm
09:10 AM 34.5°F1.4°C 28.4°F-2.0°C 78% Calm Calm -- 30.63 in1037.3 mb 0.00 in0.0 mm 0.00 in0.0 mm 0.00 in0.0 mm
09:15 AM 34.5°F1.4°C 28.4°F-2.0°C 78% Calm Calm -- 30.63 in1037.3 mb 0.00 in0.0 mm 0.00 in0.0 mm 0.00 in0.0 mm
09:20 AM 34.5°F1.4°C 28.4°F-2.0°C 78% 0.1 mph W0.2 kmh W 0.9 mph1.4 kmh 30.63 in1037.3 mb 0.00 in0.0 mm 0.00 in0.0 mm 0.00 in0.0 mm
09:25 AM 35.2°F1.8°C 28.4°F-2.0°C 78% 0.2 mph WNW0.3 kmh WNW 0.9 mph1.4 kmh 30.63 in1037.3 mb 0.00 in0.0 mm 0.00 in0.0 mm 0.00 in0.0 mm
09:30 AM 36.0°F2.2°C 30.2°F-1.0°C 78% 0.1 mph NNW0.2 kmh NNW 0.9 mph1.4 kmh 30.63 in1037.3 mb 0.00 in0.0 mm 0.00 in0.0 mm 0.00 in0.0 mm
09:35 AM 36.1°F2.3°C 30.2°F-1.0°C 78% Calm Calm -- 30.63 in1037.3 mb 0.00 in0.0 mm 0.00 in0.0 mm 0.00 in0.0 mm
09:40 AM 36.0°F2.2°C 30.2°F-1.0°C 79% 0.6 mph WNW1.0 kmh WNW 1.6 mph2.6 kmh 30.63 in1037.3 mb 0.00 in0.0 mm 0.00 in0.0 mm 0.00 in0.0 mm
09:45 AM 35.8°F2.1°C 30.2°F-1.0°C 79% 1.2 mph W1.9 kmh W 2.0 mph3.2 kmh 30.63 in1037.3 mb 0.00 in0.0 mm 0.00 in0.0 mm 0.00 in0.0 mm
09:50 AM 35.8°F2.1°C 30.2°F-1.0°C 79% 0.7 mph WSW1.1 kmh WSW 2.0 mph3.2 kmh 30.63 in1037.3 mb 0.00 in0.0 mm 0.00 in0.0 mm 0.00 in0.0 mm
09:55 AM 36.3°F2.4°C 30.2°F-1.0°C 79% 0.3 mph WSW0.5 kmh WSW 1.1 mph1.8 kmh 30.63 in1037.3 mb 0.00 in0.0 mm 0.00 in0.0 mm 0.00 in0.0 mm
10:00 AM 36.7°F2.6°C 32.0°F0.0°C 79% 0.9 mph WSW1.4 kmh WSW 2.5 mph4.0 kmh 30.63 in1037.3 mb 0.00 in0.0 mm 0.00 in0.0 mm 0.00 in0.0 mm
10:05 AM 37.0°F2.8°C 32.0°F0.0°C 79% 1.4 mph W2.3 kmh W 2.9 mph4.7 kmh 30.63 in1037.3 mb 0.00 in0.0 mm 0.00 in0.0 mm 0.00 in0.0 mm
10:10 AM 37.2°F2.9°C 32.0°F0.0°C 79% 1.2 mph WNW1.9 kmh WNW 2.9 mph4.7 kmh 30.63 in1037.3 mb 0.00 in0.0 mm 0.00 in0.0 mm 0.00 in0.0 mm
10:15 AM 37.4°F3.0°C 32.0°F0.0°C 78% 1.6 mph WSW2.6 kmh WSW 4.0 mph6.4 kmh 30.63 in1037.3 mb 0.00 in0.0 mm 0.00 in0.0 mm 0.00 in0.0 mm
10:20 AM 37.6°F3.1°C 32.0°F0.0°C 78% 2.2 mph WSW3.5 kmh WSW 4.0 mph6.4 kmh 30.63 in1037.3 mb 0.00 in0.0 mm 0.00 in0.0 mm 0.00 in0.0 mm
10:25 AM 37.9°F3.3°C 32.0°F0.0°C 78% 1.5 mph WSW2.4 kmh WSW 2.9 mph4.7 kmh 30.63 in1037.3 mb 0.00 in0.0 mm 0.00 in0.0 mm 0.00 in0.0 mm
10:30 AM 38.3°F3.5°C 32.0°F0.0°C 78% 1.3 mph W2.1 kmh W 2.9 mph4.7 kmh 30.63 in1037.3 mb 0.00 in0.0 mm 0.00 in0.0 mm 0.00 in0.0 mm
10:35 AM 38.3°F3.5°C 32.0°F0.0°C 78% 1.8 mph W2.9 kmh W 2.5 mph4.0 kmh 30.63 in1037.3 mb 0.00 in0.0 mm 0.00 in0.0 mm 0.00 in0.0 mm
10:40 AM 38.5°F3.6°C 32.0°F0.0°C 78% 2.1 mph W3.4 kmh W 3.4 mph5.5 kmh 30.63 in1037.3 mb 0.00 in0.0 mm 0.00 in0.0 mm 0.00 in0.0 mm
10:45 AM 38.5°F3.6°C 32.0°F0.0°C 78% 1.9 mph W3.1 kmh W 3.4 mph5.5 kmh 30.63 in1037.3 mb 0.00 in0.0 mm 0.00 in0.0 mm 0.00 in0.0 mm
10:50 AM 38.7°F3.7°C 32.0°F0.0°C 78% 1.7 mph WNW2.7 kmh WNW 2.9 mph4.7 kmh 30.63 in1037.3 mb 0.00 in0.0 mm 0.00 in0.0 mm 0.00 in0.0 mm
10:55 AM 38.7°F3.7°C 32.0°F0.0°C 78% 1.3 mph WNW2.1 kmh WNW 2.9 mph4.7 kmh 30.63 in1037.3 mb 0.00 in0.0 mm 0.00 in0.0 mm 0.00 in0.0 mm
11:00 AM 38.7°F3.7°C 32.0°F0.0°C 78% 0.8 mph WNW1.3 kmh WNW 1.6 mph2.6 kmh 30.63 in1037.3 mb 0.00 in0.0 mm 0.00 in0.0 mm 0.00 in0.0 mm
11:05 AM 39.0°F3.9°C 33.8°F1.0°C 78% 0.5 mph WNW0.8 kmh WNW 1.6 mph2.6 kmh 30.63 in1037.3 mb 0.00 in0.0 mm 0.00 in0.0 mm 0.00 in0.0 mm
11:10 AM 39.4°F4.1°C 33.8°F1.0°C 78% 0.2 mph NW0.3 kmh NW 1.6 mph2.6 kmh 30.63 in1037.3 mb 0.00 in0.0 mm 0.00 in0.0 mm 0.00 in0.0 mm
11:15 AM 39.6°F4.2°C 33.8°F1.0°C 78% 0.7 mph W1.1 kmh W 2.2 mph3.5 kmh 30.63 in1037.3 mb 0.00 in0.0 mm 0.00 in0.0 mm 0.00 in0.0 mm
11:20 AM 39.6°F4.2°C 33.8°F1.0°C 78% 1.4 mph W2.3 kmh W 2.2 mph3.5 kmh 30.63 in1037.3 mb 0.00 in0.0 mm 0.00 in0.0 mm 0.00 in0.0 mm
11:25 AM 39.6°F4.2°C 33.8°F1.0°C 78% 1.3 mph W2.1 kmh W 2.5 mph4.0 kmh 30.63 in1037.3 mb 0.00 in0.0 mm 0.00 in0.0 mm 0.00 in0.0 mm
11:30 AM 39.6°F4.2°C 33.8°F1.0°C 78% 1.6 mph W2.6 kmh W 3.6 mph5.8 kmh 30.63 in1037.3 mb 0.00 in0.0 mm 0.00 in0.0 mm 0.00 in0.0 mm
11:35 AM 39.6°F4.2°C 33.8°F1.0°C 78% 2.2 mph W3.5 kmh W 3.6 mph5.8 kmh 30.63 in1037.3 mb 0.00 in0.0 mm 0.00 in0.0 mm 0.00 in0.0 mm
11:40 AM 39.4°F4.1°C 33.8°F1.0°C 78% 2.6 mph W4.2 kmh W 3.6 mph5.8 kmh 30.63 in1037.3 mb 0.00 in0.0 mm 0.00 in0.0 mm 0.00 in0.0 mm
11:45 AM 39.6°F4.2°C 33.8°F1.0°C 78% 2.0 mph W3.2 kmh W 3.6 mph5.8 kmh 30.63 in1037.3 mb 0.00 in0.0 mm 0.00 in0.0 mm 0.00 in0.0 mm
11:50 AM 39.6°F4.2°C 33.8°F1.0°C 78% 1.9 mph W3.1 kmh W 3.6 mph5.8 kmh 30.63 in1037.3 mb 0.00 in0.0 mm 0.00 in0.0 mm 0.00 in0.0 mm
11:55 AM 39.4°F4.1°C 33.8°F1.0°C 78% 2.2 mph WSW3.5 kmh WSW 4.3 mph6.9 kmh 30.63 in1037.3 mb 0.00 in0.0 mm 0.00 in0.0 mm 0.00 in0.0 mm
12:00 PM 39.6°F4.2°C 33.8°F1.0°C 78% 1.9 mph WSW3.1 kmh WSW 4.3 mph6.9 kmh 30.63 in1037.3 mb 0.00 in0.0 mm 0.00 in0.0 mm 0.00 in0.0 mm
12:05 PM 39.6°F4.2°C 33.8°F1.0°C 78% 1.7 mph WSW2.7 kmh WSW 3.6 mph5.8 kmh 30.63 in1037.3 mb 0.00 in0.0 mm 0.00 in0.0 mm 0.00 in0.0 mm
12:10 PM 41.4°F5.2°C 35.6°F2.0°C 78% 1.4 mph WSW2.3 kmh WSW 2.5 mph4.0 kmh 30.63 in1037.3 mb 0.00 in0.0 mm 0.00 in0.0 mm 0.00 in0.0 mm
12:15 PM 40.6°F4.8°C 33.8°F1.0°C 77% 1.4 mph WSW2.3 kmh WSW 2.5 mph4.0 kmh 30.63 in1037.3 mb 0.00 in0.0 mm 0.00 in0.0 mm 0.00 in0.0 mm
12:20 PM 40.3°F4.6°C 33.8°F1.0°C 77% 0.9 mph WSW1.4 kmh WSW 2.5 mph4.0 kmh 30.63 in1037.3 mb 0.00 in0.0 mm 0.00 in0.0 mm 0.00 in0.0 mm
12:25 PM 40.1°F4.5°C 33.8°F1.0°C 77% 0.8 mph W1.3 kmh W 1.6 mph2.6 kmh 30.63 in1037.3 mb 0.00 in0.0 mm 0.00 in0.0 mm 0.00 in0.0 mm
12:30 PM 39.9°F4.4°C 33.8°F1.0°C 78% 1.0 mph WNW1.6 kmh WNW 2.0 mph3.2 kmh 30.63 in1037.3 mb 0.00 in0.0 mm 0.00 in0.0 mm 0.00 in0.0 mm
12:35 PM 39.9°F4.4°C 33.8°F1.0°C 78% 1.6 mph NW2.6 kmh NW 3.4 mph5.5 kmh 30.63 in1037.3 mb 0.00 in0.0 mm 0.00 in0.0 mm 0.00 in0.0 mm
12:40 PM 39.9°F4.4°C 33.8°F1.0°C 78% 2.1 mph NW3.4 kmh NW 3.4 mph5.5 kmh 30.63 in1037.3 mb 0.00 in0.0 mm 0.00 in0.0 mm 0.00 in0.0 mm
12:45 PM 39.9°F4.4°C 33.8°F1.0°C 79% 1.8 mph NW2.9 kmh NW 2.9 mph4.7 kmh 30.63 in1037.3 mb 0.00 in0.0 mm 0.00 in0.0 mm 0.00 in0.0 mm
12:50 PM 40.1°F4.5°C 33.8°F1.0°C 79% 1.2 mph NW1.9 kmh NW 2.2 mph3.5 kmh 30.63 in1037.3 mb 0.00 in0.0 mm 0.00 in0.0 mm 0.00 in0.0 mm
12:55 PM 40.1°F4.5°C 33.8°F1.0°C 79% 1.1 mph WNW1.8 kmh WNW 2.0 mph3.2 kmh 30.63 in1037.3 mb 0.00 in0.0 mm 0.00 in0.0 mm 0.00 in0.0 mm
01:00 PM 40.3°F4.6°C 33.8°F1.0°C 79% 1.2 mph WNW1.9 kmh WNW 2.0 mph3.2 kmh 30.63 in1037.3 mb 0.00 in0.0 mm 0.00 in0.0 mm 0.00 in0.0 mm
01:05 PM 40.3°F4.6°C 33.8°F1.0°C 79% 0.9 mph WNW1.4 kmh WNW 3.8 mph6.1 kmh 30.60 in1036.2 mb 0.00 in0.0 mm 0.00 in0.0 mm 0.00 in0.0 mm
01:10 PM 40.1°F4.5°C 33.8°F1.0°C 79% 1.4 mph NW2.3 kmh NW 3.8 mph6.1 kmh 30.60 in1036.2 mb 0.00 in0.0 mm 0.00 in0.0 mm 0.00 in0.0 mm
01:15 PM 39.9°F4.4°C 33.8°F1.0°C 79% 1.5 mph NW2.4 kmh NW 3.8 mph6.1 kmh 30.60 in1036.2 mb 0.00 in0.0 mm 0.00 in0.0 mm 0.00 in0.0 mm
01:20 PM 39.9°F4.4°C 33.8°F1.0°C 79% 1.0 mph N1.6 kmh N 2.2 mph3.5 kmh 30.63 in1037.3 mb 0.00 in0.0 mm 0.00 in0.0 mm 0.00 in0.0 mm
01:25 PM 39.9°F4.4°C 33.8°F1.0°C 79% 0.9 mph N1.4 kmh N 2.2 mph3.5 kmh 30.63 in1037.3 mb 0.00 in0.0 mm 0.00 in0.0 mm 0.00 in0.0 mm
01:30 PM 40.1°F4.5°C 33.8°F1.0°C 79% 0.6 mph NNE1.0 kmh NNE 1.3 mph2.1 kmh 30.63 in1037.3 mb 0.00 in0.0 mm 0.00 in0.0 mm 0.00 in0.0 mm
01:35 PM 40.1°F4.5°C 33.8°F1.0°C 79% 0.3 mph NNE0.5 kmh NNE 1.3 mph2.1 kmh 30.60 in1036.2 mb 0.00 in0.0 mm 0.00 in0.0 mm 0.00 in0.0 mm
01:40 PM 40.1°F4.5°C 33.8°F1.0°C 79% 0.3 mph N0.5 kmh N 1.6 mph2.6 kmh 30.60 in1036.2 mb 0.00 in0.0 mm 0.00 in0.0 mm 0.00 in0.0 mm
01:45 PM 39.9°F4.4°C 33.8°F1.0°C 79% 0.2 mph NNE0.3 kmh NNE 1.6 mph2.6 kmh 30.60 in1036.2 mb 0.06 in1.5 mm 0.72 in18.3 mm 0.06 in1.5 mm
01:50 PM 39.9°F4.4°C 33.8°F1.0°C 79% 0.1 mph NW0.2 kmh NW 1.3 mph2.1 kmh 30.63 in1037.3 mb 0.06 in1.5 mm 0.00 in0.0 mm 0.06 in1.5 mm
01:55 PM 39.9°F4.4°C 33.8°F1.0°C 79% 0.2 mph NW0.3 kmh NW 1.3 mph2.1 kmh 30.63 in1037.3 mb 0.06 in1.5 mm 0.00 in0.0 mm 0.06 in1.5 mm
02:00 PM 39.9°F4.4°C 33.8°F1.0°C 79% Calm Calm -- 30.63 in1037.3 mb 0.06 in1.5 mm 0.00 in0.0 mm 0.06 in1.5 mm
02:05 PM 39.9°F4.4°C 33.8°F1.0°C 80% Calm Calm -- 30.63 in1037.3 mb 0.06 in1.5 mm 0.00 in0.0 mm 0.06 in1.5 mm
02:10 PM 39.9°F4.4°C 33.8°F1.0°C 80% Calm Calm -- 30.63 in1037.3 mb 0.06 in1.5 mm 0.00 in0.0 mm 0.06 in1.5 mm
02:15 PM 39.9°F4.4°C 33.8°F1.0°C 80% Calm Calm -- 30.63 in1037.3 mb 0.06 in1.5 mm 0.00 in0.0 mm 0.06 in1.5 mm
02:20 PM 40.1°F4.5°C 35.6°F2.0°C 80% 0.4 mph WSW0.6 kmh WSW 2.2 mph3.5 kmh 30.63 in1037.3 mb 0.06 in1.5 mm 0.00 in0.0 mm 0.06 in1.5 mm
02:25 PM 40.1°F4.5°C 33.8°F1.0°C 79% 1.3 mph W2.1 kmh W 2.5 mph4.0 kmh 30.63 in1037.3 mb 0.06 in1.5 mm 0.00 in0.0 mm 0.06 in1.5 mm
02:30 PM 40.3°F4.6°C 33.8°F1.0°C 79% 1.3 mph WNW2.1 kmh WNW 2.9 mph4.7 kmh 30.63 in1037.3 mb 0.06 in1.5 mm 0.00 in0.0 mm 0.06 in1.5 mm
02:35 PM 40.3°F4.6°C 33.8°F1.0°C 79% 1.1 mph NW1.8 kmh NW 2.9 mph4.7 kmh 30.63 in1037.3 mb 0.06 in1.5 mm 0.00 in0.0 mm 0.06 in1.5 mm
02:40 PM 40.1°F4.5°C 33.8°F1.0°C 79% 1.8 mph NW2.9 kmh NW 2.9 mph4.7 kmh 30.63 in1037.3 mb 0.06 in1.5 mm 0.00 in0.0 mm 0.06 in1.5 mm
02:45 PM 40.1°F4.5°C 33.8°F1.0°C 79% 1.9 mph NW3.1 kmh NW 3.1 mph5.0 kmh 30.63 in1037.3 mb 0.00 in0.0 mm 0.00 in0.0 mm 0.06 in1.5 mm
02:50 PM 39.9°F4.4°C 33.8°F1.0°C 79% 1.6 mph NW2.6 kmh NW 3.1 mph5.0 kmh 30.63 in1037.3 mb 0.00 in0.0 mm 0.00 in0.0 mm 0.06 in1.5 mm
02:55 PM 39.6°F4.2°C 33.8°F1.0°C 79% 1.2 mph NW1.9 kmh NW 2.0 mph3.2 kmh 30.63 in1037.3 mb 0.00 in0.0 mm 0.00 in0.0 mm 0.06 in1.5 mm
03:00 PM 39.6°F4.2°C 33.8°F1.0°C 79% 1.4 mph NW2.3 kmh NW 2.7 mph4.3 kmh 30.63 in1037.3 mb 0.00 in0.0 mm 0.00 in0.0 mm 0.06 in1.5 mm
03:05 PM 39.4°F4.1°C 33.8°F1.0°C 79% 1.5 mph NNW2.4 kmh NNW 2.7 mph4.3 kmh 30.63 in1037.3 mb 0.00 in0.0 mm 0.00 in0.0 mm 0.06 in1.5 mm
03:10 PM 39.4°F4.1°C 33.8°F1.0°C 79% 1.2 mph N1.9 kmh N 2.7 mph4.3 kmh 30.63 in1037.3 mb 0.00 in0.0 mm 0.00 in0.0 mm 0.06 in1.5 mm
03:15 PM 39.4°F4.1°C 33.8°F1.0°C 79% 0.7 mph N1.1 kmh N 1.1 mph1.8 kmh 30.63 in1037.3 mb 0.00 in0.0 mm 0.00 in0.0 mm 0.06 in1.5 mm
03:20 PM 39.2°F4.0°C 33.8°F1.0°C 79% 0.8 mph N1.3 kmh N 2.2 mph3.5 kmh 30.63 in1037.3 mb 0.00 in0.0 mm 0.00 in0.0 mm 0.06 in1.5 mm
03:25 PM 39.2°F4.0°C 33.8°F1.0°C 79% 0.8 mph N1.3 kmh N 2.2 mph3.5 kmh 30.63 in1037.3 mb 0.00 in0.0 mm 0.00 in0.0 mm 0.06 in1.5 mm
03:30 PM 39.2°F4.0°C 33.8°F1.0°C 80% 0.3 mph NW0.5 kmh NW 1.1 mph1.8 kmh 30.63 in1037.3 mb 0.00 in0.0 mm 0.00 in0.0 mm 0.06 in1.5 mm
03:35 PM 39.2°F4.0°C 33.8°F1.0°C 80% Calm Calm -- 30.63 in1037.3 mb 0.00 in0.0 mm 0.00 in0.0 mm 0.06 in1.5 mm
03:40 PM 39.0°F3.9°C 33.8°F1.0°C 80% 0.2 mph NNW0.3 kmh NNW 2.0 mph3.2 kmh 30.63 in1037.3 mb 0.00 in0.0 mm 0.00 in0.0 mm 0.06 in1.5 mm
03:45 PM 39.0°F3.9°C 33.8°F1.0°C 80% 0.3 mph NNW0.5 kmh NNW 2.0 mph3.2 kmh 30.63 in1037.3 mb 0.00 in0.0 mm 0.00 in0.0 mm 0.06 in1.5 mm
03:50 PM 39.0°F3.9°C 33.8°F1.0°C 80% Calm Calm -- 30.63 in1037.3 mb 0.00 in0.0 mm 0.00 in0.0 mm 0.06 in1.5 mm
03:55 PM 38.8°F3.8°C 33.8°F1.0°C 80% Calm Calm -- 30.63 in1037.3 mb 0.00 in0.0 mm 0.00 in0.0 mm 0.06 in1.5 mm
04:00 PM 38.8°F3.8°C 33.8°F1.0°C 80% Calm Calm -- 30.63 in1037.3 mb 0.00 in0.0 mm 0.00 in0.0 mm 0.06 in1.5 mm
04:05 PM 38.8°F3.8°C 33.8°F1.0°C 80% Calm Calm -- 30.63 in1037.3 mb 0.00 in0.0 mm 0.00 in0.0 mm 0.06 in1.5 mm
04:10 PM 38.8°F3.8°C 33.8°F1.0°C 80% 0.1 mph NW0.2 kmh NW 1.1 mph1.8 kmh 30.63 in1037.3 mb 0.00 in0.0 mm 0.00 in0.0 mm 0.06 in1.5 mm
04:15 PM 38.7°F3.7°C 33.8°F1.0°C 80% 0.6 mph NW1.0 kmh NW 1.3 mph2.1 kmh 30.63 in1037.3 mb 0.00 in0.0 mm 0.00 in0.0 mm 0.06 in1.5 mm
04:20 PM 38.7°F3.7°C 33.8°F1.0°C 81% 0.4 mph NW0.6 kmh NW 1.3 mph2.1 kmh 30.63 in1037.3 mb 0.00 in0.0 mm 0.00 in0.0 mm 0.06 in1.5 mm
04:25 PM 38.5°F3.6°C 33.8°F1.0°C 81% 0.2 mph NW0.3 kmh NW 1.1 mph1.8 kmh 30.63 in1037.3 mb 0.00 in0.0 mm 0.00 in0.0 mm 0.06 in1.5 mm
04:30 PM 38.5°F3.6°C 33.8°F1.0°C 81% 0.2 mph NW0.3 kmh NW 1.1 mph1.8 kmh 30.63 in1037.3 mb 0.00 in0.0 mm 0.00 in0.0 mm 0.06 in1.5 mm
04:35 PM 38.5°F3.6°C 33.8°F1.0°C 81% 0.1 mph NNW0.2 kmh NNW 1.1 mph1.8 kmh 30.63 in1037.3 mb 0.00 in0.0 mm 0.00 in0.0 mm 0.06 in1.5 mm
04:40 PM 38.5°F3.6°C 33.8°F1.0°C 81% Calm Calm -- 30.63 in1037.3 mb 0.00 in0.0 mm 0.00 in0.0 mm 0.06 in1.5 mm
04:45 PM 38.3°F3.5°C 33.8°F1.0°C 81% Calm Calm -- 30.63 in1037.3 mb 0.00 in0.0 mm 0.00 in0.0 mm 0.06 in1.5 mm
04:50 PM 38.3°F3.5°C 33.8°F1.0°C 81% Calm Calm -- 30.63 in1037.3 mb 0.00 in0.0 mm 0.00 in0.0 mm 0.06 in1.5 mm
04:55 PM 38.3°F3.5°C 33.8°F1.0°C 81% Calm Calm -- 30.63 in1037.3 mb 0.00 in0.0 mm 0.00 in0.0 mm 0.06 in1.5 mm
05:00 PM 38.3°F3.5°C 33.8°F1.0°C 81% Calm Calm -- 30.63 in1037.3 mb 0.00 in0.0 mm 0.00 in0.0 mm 0.06 in1.5 mm
05:05 PM 38.3°F3.5°C 33.8°F1.0°C 81% Calm Calm -- 30.63 in1037.3 mb 0.00 in0.0 mm 0.00 in0.0 mm 0.06 in1.5 mm
05:10 PM 38.1°F3.4°C 33.8°F1.0°C 81% Calm Calm -- 30.63 in1037.3 mb 0.00 in0.0 mm 0.00 in0.0 mm 0.06 in1.5 mm
05:15 PM 38.1°F3.4°C 33.8°F1.0°C 81% Calm Calm -- 30.63 in1037.3 mb 0.00 in0.0 mm 0.00 in0.0 mm 0.06 in1.5 mm
05:20 PM 37.9°F3.3°C 33.8°F1.0°C 81% Calm Calm -- 30.63 in1037.3 mb 0.00 in0.0 mm 0.00 in0.0 mm 0.06 in1.5 mm
05:25 PM 37.8°F3.2°C 33.8°F1.0°C 81% Calm Calm -- 30.63 in1037.3 mb 0.00 in0.0 mm 0.00 in0.0 mm 0.06 in1.5 mm
05:30 PM 37.8°F3.2°C 33.8°F1.0°C 81% Calm Calm -- 30.63 in1037.3 mb 0.00 in0.0 mm 0.00 in0.0 mm 0.06 in1.5 mm
05:35 PM 37.6°F3.1°C 33.8°F1.0°C 82% Calm Calm -- 30.63 in1037.3 mb 0.00 in0.0 mm 0.00 in0.0 mm 0.06 in1.5 mm
05:40 PM 37.6°F3.1°C 33.8°F1.0°C 82% Calm Calm -- 30.63 in1037.3 mb 0.00 in0.0 mm 0.00 in0.0 mm 0.06 in1.5 mm
05:45 PM 37.6°F3.1°C 33.8°F1.0°C 82% Calm Calm -- 30.63 in1037.3 mb 0.00 in0.0 mm 0.00 in0.0 mm 0.06 in1.5 mm
05:50 PM 37.4°F3.0°C 33.8°F1.0°C 82% Calm Calm -- 30.63 in1037.3 mb 0.00 in0.0 mm 0.00 in0.0 mm 0.06 in1.5 mm
05:55 PM 37.4°F3.0°C 33.8°F1.0°C 82% Calm Calm -- 30.63 in1037.3 mb 0.00 in0.0 mm 0.00 in0.0 mm 0.06 in1.5 mm
06:00 PM 37.4°F3.0°C 33.8°F1.0°C 82% Calm Calm -- 30.63 in1037.3 mb 0.00 in0.0 mm 0.00 in0.0 mm 0.06 in1.5 mm
06:05 PM 37.4°F3.0°C 33.8°F1.0°C 82% Calm Calm -- 30.63 in1037.3 mb 0.00 in0.0 mm 0.00 in0.0 mm 0.06 in1.5 mm
06:10 PM 37.0°F2.8°C 33.8°F1.0°C 82% Calm Calm -- 30.63 in1037.3 mb 0.00 in0.0 mm 0.00 in0.0 mm 0.06 in1.5 mm
06:15 PM 36.9°F2.7°C 32.0°F0.0°C 82% Calm Calm -- 30.63 in1037.3 mb 0.00 in0.0 mm 0.00 in0.0 mm 0.06 in1.5 mm
06:20 PM 36.7°F2.6°C 32.0°F0.0°C 82% Calm Calm -- 30.63 in1037.3 mb 0.00 in0.0 mm 0.00 in0.0 mm 0.06 in1.5 mm
06:25 PM 36.7°F2.6°C 32.0°F0.0°C 82% 0.1 mph NE0.2 kmh NE 1.1 mph1.8 kmh 30.63 in1037.3 mb 0.00 in0.0 mm 0.00 in0.0 mm 0.06 in1.5 mm
06:30 PM 36.5°F2.5°C 32.0°F0.0°C 82% 0.2 mph NE0.3 kmh NE 1.1 mph1.8 kmh 30.63 in1037.3 mb 0.00 in0.0 mm 0.00 in0.0 mm 0.06 in1.5 mm
06:35 PM 36.5°F2.5°C 32.0°F0.0°C 82% 0.2 mph NE0.3 kmh NE 0.9 mph1.4 kmh 30.63 in1037.3 mb 0.00 in0.0 mm 0.00 in0.0 mm 0.06 in1.5 mm
06:40 PM 36.5°F2.5°C 32.0°F0.0°C 82% 0.3 mph NE0.5 kmh NE 0.9 mph1.4 kmh 30.63 in1037.3 mb 0.00 in0.0 mm 0.00 in0.0 mm 0.06 in1.5 mm
06:45 PM 36.5°F2.5°C 32.0°F0.0°C 82% 0.4 mph NE0.6 kmh NE 0.9 mph1.4 kmh 30.63 in1037.3 mb 0.00 in0.0 mm 0.00 in0.0 mm 0.06 in1.5 mm
06:50 PM 36.5°F2.5°C 32.0°F0.0°C 82% 0.1 mph NE0.2 kmh NE 0.9 mph1.4 kmh 30.63 in1037.3 mb 0.00 in0.0 mm 0.00 in0.0 mm 0.06 in1.5 mm
06:55 PM 36.3°F2.4°C 32.0°F0.0°C 82% 0.5 mph NE0.8 kmh NE 1.3 mph2.1 kmh 30.63 in1037.3 mb 0.00 in0.0 mm 0.00 in0.0 mm 0.06 in1.5 mm
07:00 PM 36.3°F2.4°C 32.0°F0.0°C 82% 0.7 mph NE1.1 kmh NE 1.3 mph2.1 kmh 30.63 in1037.3 mb 0.00 in0.0 mm 0.00 in0.0 mm 0.06 in1.5 mm
07:05 PM 36.3°F2.4°C 32.0°F0.0°C 82% 0.3 mph NE0.5 kmh NE 0.9 mph1.4 kmh 30.63 in1037.3 mb 0.00 in0.0 mm 0.00 in0.0 mm 0.06 in1.5 mm
07:10 PM 36.1°F2.3°C 32.0°F0.0°C 82% 0.3 mph NE0.5 kmh NE 0.9 mph1.4 kmh 30.63 in1037.3 mb 0.00 in0.0 mm 0.00 in0.0 mm 0.06 in1.5 mm
07:15 PM 36.1°F2.3°C 32.0°F0.0°C 82% 0.4 mph NE0.6 kmh NE 0.9 mph1.4 kmh 30.63 in1037.3 mb 0.00 in0.0 mm 0.00 in0.0 mm 0.06 in1.5 mm
07:20 PM 36.1°F2.3°C 32.0°F0.0°C 82% 1.1 mph NE1.8 kmh NE 3.1 mph5.0 kmh 30.63 in1037.3 mb 0.00 in0.0 mm 0.00 in0.0 mm 0.06 in1.5 mm
07:25 PM 36.1°F2.3°C 32.0°F0.0°C 82% 1.5 mph NE2.4 kmh NE 3.1 mph5.0 kmh 30.63 in1037.3 mb 0.00 in0.0 mm 0.00 in0.0 mm 0.06 in1.5 mm
07:30 PM 36.1°F2.3°C 32.0°F0.0°C 82% 1.1 mph NE1.8 kmh NE 2.0 mph3.2 kmh 30.63 in1037.3 mb 0.00 in0.0 mm 0.00 in0.0 mm 0.06 in1.5 mm
07:35 PM 36.0°F2.2°C 32.0°F0.0°C 82% 1.0 mph NE1.6 kmh NE 1.6 mph2.6 kmh 30.63 in1037.3 mb 0.00 in0.0 mm 0.00 in0.0 mm 0.06 in1.5 mm
07:40 PM 36.0°F2.2°C 32.0°F0.0°C 82% 0.5 mph NE0.8 kmh NE 1.3 mph2.1 kmh 30.63 in1037.3 mb 0.00 in0.0 mm 0.00 in0.0 mm 0.06 in1.5 mm
07:45 PM 36.0°F2.2°C 32.0°F0.0°C 82% 0.1 mph NNE0.2 kmh NNE 1.3 mph2.1 kmh 30.63 in1037.3 mb 0.00 in0.0 mm 0.00 in0.0 mm 0.06 in1.5 mm
07:50 PM 35.8°F2.1°C 32.0°F0.0°C 82% Calm Calm -- 30.63 in1037.3 mb 0.00 in0.0 mm 0.00 in0.0 mm 0.06 in1.5 mm
07:55 PM 35.6°F2.0°C 32.0°F0.0°C 82% Calm Calm -- 30.63 in1037.3 mb 0.00 in0.0 mm 0.00 in0.0 mm 0.06 in1.5 mm
08:00 PM 35.6°F2.0°C 32.0°F0.0°C 82% Calm Calm -- 30.63 in1037.3 mb 0.00 in0.0 mm 0.00 in0.0 mm 0.06 in1.5 mm
08:05 PM 35.6°F2.0°C 32.0°F0.0°C 82% 0.1 mph NNE0.2 kmh NNE 0.9 mph1.4 kmh 30.63 in1037.3 mb 0.00 in0.0 mm 0.00 in0.0 mm 0.06 in1.5 mm
08:10 PM 35.6°F2.0°C 32.0°F0.0°C 82% 0.1 mph NE0.2 kmh NE 0.9 mph1.4 kmh 30.63 in1037.3 mb 0.00 in0.0 mm 0.00 in0.0 mm 0.06 in1.5 mm
08:15 PM 35.6°F2.0°C 32.0°F0.0°C 82% 0.6 mph NE1.0 kmh NE 2.5 mph4.0 kmh 30.63 in1037.3 mb 0.00 in0.0 mm 0.00 in0.0 mm 0.06 in1.5 mm
08:20 PM 35.8°F2.1°C 32.0°F0.0°C 82% 1.4 mph ENE2.3 kmh ENE 2.5 mph4.0 kmh 30.63 in1037.3 mb 0.00 in0.0 mm 0.00 in0.0 mm 0.06 in1.5 mm
08:25 PM 35.8°F2.1°C 32.0°F0.0°C 82% 1.4 mph ENE2.3 kmh ENE 2.5 mph4.0 kmh 30.63 in1037.3 mb 0.00 in0.0 mm 0.00 in0.0 mm 0.06 in1.5 mm
08:30 PM 35.8°F2.1°C 32.0°F0.0°C 82% 1.0 mph NE1.6 kmh NE 2.2 mph3.5 kmh 30.63 in1037.3 mb 0.00 in0.0 mm 0.00 in0.0 mm 0.06 in1.5 mm
08:35 PM 35.8°F2.1°C 30.2°F-1.0°C 81% 1.1 mph NNE1.8 kmh NNE 2.2 mph3.5 kmh 30.60 in1036.2 mb 0.00 in0.0 mm 0.00 in0.0 mm 0.06 in1.5 mm
08:40 PM 35.6°F2.0°C 30.2°F-1.0°C 81% 1.0 mph NNW1.6 kmh NNW 2.2 mph3.5 kmh 30.60 in1036.2 mb 0.00 in0.0 mm 0.00 in0.0 mm 0.06 in1.5 mm
08:45 PM 35.6°F2.0°C 30.2°F-1.0°C 81% 0.6 mph NW1.0 kmh NW 1.6 mph2.6 kmh 30.60 in1036.2 mb 0.00 in0.0 mm 0.00 in0.0 mm 0.06 in1.5 mm
08:50 PM 35.4°F1.9°C 30.2°F-1.0°C 81% 0.1 mph WNW0.2 kmh WNW 0.9 mph1.4 kmh 30.60 in1036.2 mb 0.00 in0.0 mm 0.00 in0.0 mm 0.06 in1.5 mm
08:55 PM 35.4°F1.9°C 30.2°F-1.0°C 81% Calm Calm -- 30.60 in1036.2 mb 0.00 in0.0 mm 0.00 in0.0 mm 0.06 in1.5 mm
09:00 PM 35.2°F1.8°C 30.2°F-1.0°C 81% 0.3 mph SW0.5 kmh SW 1.6 mph2.6 kmh 30.60 in1036.2 mb 0.00 in0.0 mm 0.00 in0.0 mm 0.06 in1.5 mm
09:05 PM 35.2°F1.8°C 30.2°F-1.0°C 81% 0.3 mph SW0.5 kmh SW 1.6 mph2.6 kmh 30.60 in1036.2 mb 0.00 in0.0 mm 0.00 in0.0 mm 0.06 in1.5 mm
09:10 PM 35.2°F1.8°C 30.2°F-1.0°C 81% 0.3 mph SW0.5 kmh SW 1.3 mph2.1 kmh 30.60 in1036.2 mb 0.00 in0.0 mm 0.00 in0.0 mm 0.06 in1.5 mm
09:15 PM 35.1°F1.7°C 30.2°F-1.0°C 81% 0.4 mph WSW0.6 kmh WSW 1.3 mph2.1 kmh 30.60 in1036.2 mb 0.00 in0.0 mm 0.00 in0.0 mm 0.06 in1.5 mm
09:20 PM 35.1°F1.7°C 30.2°F-1.0°C 81% 0.1 mph W0.2 kmh W 1.1 mph1.8 kmh 30.60 in1036.2 mb 0.00 in0.0 mm 0.00 in0.0 mm 0.06 in1.5 mm
09:25 PM 35.1°F1.7°C 30.2°F-1.0°C 80% 0.1 mph NW0.2 kmh NW 1.1 mph1.8 kmh 30.60 in1036.2 mb 0.00 in0.0 mm 0.00 in0.0 mm 0.06 in1.5 mm
09:30 PM 35.1°F1.7°C 30.2°F-1.0°C 80% 0.7 mph NNW1.1 kmh NNW 2.2 mph3.5 kmh 30.60 in1036.2 mb 0.00 in0.0 mm 0.00 in0.0 mm 0.06 in1.5 mm
09:35 PM 35.2°F1.8°C 30.2°F-1.0°C 80% 1.6 mph N2.6 kmh N 3.4 mph5.5 kmh 30.60 in1036.2 mb 0.00 in0.0 mm 0.00 in0.0 mm 0.06 in1.5 mm
09:40 PM 35.1°F1.7°C 30.2°F-1.0°C 80% 2.1 mph NNW3.4 kmh NNW 3.4 mph5.5 kmh 30.60 in1036.2 mb 0.00 in0.0 mm 0.00 in0.0 mm 0.06 in1.5 mm
09:45 PM 34.9°F1.6°C 30.2°F-1.0°C 80% 1.6 mph NNW2.6 kmh NNW 3.4 mph5.5 kmh 30.60 in1036.2 mb 0.00 in0.0 mm 0.00 in0.0 mm 0.06 in1.5 mm
09:50 PM 34.9°F1.6°C 30.2°F-1.0°C 79% 1.0 mph N1.6 kmh N 1.3 mph2.1 kmh 30.60 in1036.2 mb 0.00 in0.0 mm 0.00 in0.0 mm 0.06 in1.5 mm
09:55 PM 34.7°F1.5°C 30.2°F-1.0°C 79% 0.7 mph N1.1 kmh N 1.3 mph2.1 kmh 30.60 in1036.2 mb 0.00 in0.0 mm 0.00 in0.0 mm 0.06 in1.5 mm
10:00 PM 34.5°F1.4°C 28.4°F-2.0°C 79% 0.6 mph N1.0 kmh N 1.6 mph2.6 kmh 30.60 in1036.2 mb 0.00 in0.0 mm 0.00 in0.0 mm 0.06 in1.5 mm
10:05 PM 34.7°F1.5°C 30.2°F-1.0°C 79% 1.0 mph N1.6 kmh N 2.5 mph4.0 kmh 30.60 in1036.2 mb 0.00 in0.0 mm 0.00 in0.0 mm 0.06 in1.5 mm
10:10 PM 34.9°F1.6°C 30.2°F-1.0°C 79% 1.4 mph N2.3 kmh N 2.5 mph4.0 kmh 30.60 in1036.2 mb 0.00 in0.0 mm 0.00 in0.0 mm 0.06 in1.5 mm
10:15 PM 34.9°F1.6°C 30.2°F-1.0°C 79% 1.1 mph N1.8 kmh N 2.5 mph4.0 kmh 30.60 in1036.2 mb 0.00 in0.0 mm 0.00 in0.0 mm 0.06 in1.5 mm
10:20 PM 34.9°F1.6°C 30.2°F-1.0°C 79% 0.5 mph NNE0.8 kmh NNE 1.6 mph2.6 kmh 30.60 in1036.2 mb 0.00 in0.0 mm 0.00 in0.0 mm 0.06 in1.5 mm
10:25 PM 34.7°F1.5°C 30.2°F-1.0°C 79% Calm Calm 0.9 mph1.4 kmh 30.60 in1036.2 mb 0.00 in0.0 mm 0.00 in0.0 mm 0.06 in1.5 mm
10:30 PM 34.5°F1.4°C 28.4°F-2.0°C 79% 0.3 mph NE0.5 kmh NE 2.5 mph4.0 kmh 30.60 in1036.2 mb 0.00 in0.0 mm 0.00 in0.0 mm 0.06 in1.5 mm
10:35 PM 34.5°F1.4°C 28.4°F-2.0°C 79% 0.6 mph N1.0 kmh N 2.5 mph4.0 kmh 30.60 in1036.2 mb 0.00 in0.0 mm 0.00 in0.0 mm 0.06 in1.5 mm
10:40 PM 34.3°F1.3°C 28.4°F-2.0°C 79% 0.4 mph NW0.6 kmh NW 1.1 mph1.8 kmh 30.60 in1036.2 mb 0.00 in0.0 mm 0.00 in0.0 mm 0.06 in1.5 mm
10:45 PM 34.3°F1.3°C 28.4°F-2.0°C 79% 0.5 mph N0.8 kmh N 1.3 mph2.1 kmh 30.60 in1036.2 mb 0.00 in0.0 mm 0.00 in0.0 mm 0.06 in1.5 mm
10:50 PM 34.3°F1.3°C 28.4°F-2.0°C 79% 0.4 mph NNE0.6 kmh NNE 1.3 mph2.1 kmh 30.60 in1036.2 mb 0.00 in0.0 mm 0.00 in0.0 mm 0.06 in1.5 mm
10:55 PM 34.3°F1.3°C 28.4°F-2.0°C 79% 0.1 mph NNE0.2 kmh NNE 0.9 mph1.4 kmh 30.60 in1036.2 mb 0.00 in0.0 mm 0.00 in0.0 mm 0.06 in1.5 mm
11:00 PM 34.5°F1.4°C 28.4°F-2.0°C 79% 0.1 mph NE0.2 kmh NE 0.9 mph1.4 kmh 30.60 in1036.2 mb 0.00 in0.0 mm 0.00 in0.0 mm 0.06 in1.5 mm
11:05 PM 34.5°F1.4°C 28.4°F-2.0°C 79% 0.2 mph NE0.3 kmh NE 0.9 mph1.4 kmh 30.60 in1036.2 mb 0.00 in0.0 mm 0.00 in0.0 mm 0.06 in1.5 mm
11:10 PM 34.3°F1.3°C 28.4°F-2.0°C 79% 0.1 mph NE0.2 kmh NE 0.9 mph1.4 kmh 30.60 in1036.2 mb 0.00 in0.0 mm 0.00 in0.0 mm 0.06 in1.5 mm
11:15 PM 34.3°F1.3°C 28.4°F-2.0°C 79% Calm Calm -- 30.60 in1036.2 mb 0.00 in0.0 mm 0.00 in0.0 mm 0.06 in1.5 mm
11:20 PM 34.5°F1.4°C 30.2°F-1.0°C 80% Calm Calm -- 30.60 in1036.2 mb 0.00 in0.0 mm 0.00 in0.0 mm 0.06 in1.5 mm
11:25 PM 34.3°F1.3°C 30.2°F-1.0°C 80% 0.1 mph NE0.2 kmh NE 0.9 mph1.4 kmh 30.60 in1036.2 mb 0.00 in0.0 mm 0.00 in0.0 mm 0.06 in1.5 mm
11:30 PM 34.5°F1.4°C 30.2°F-1.0°C 80% 0.1 mph NE0.2 kmh NE 0.9 mph1.4 kmh 30.60 in1036.2 mb 0.00 in0.0 mm 0.00 in0.0 mm 0.06 in1.5 mm
11:35 PM 34.5°F1.4°C 30.2°F-1.0°C 80% 0.2 mph NNW0.3 kmh NNW 1.1 mph1.8 kmh 30.60 in1036.2 mb 0.00 in0.0 mm 0.00 in0.0 mm 0.06 in1.5 mm
11:40 PM 34.7°F1.5°C 30.2°F-1.0°C 80% 0.7 mph NW1.1 kmh NW 2.2 mph3.5 kmh 30.60 in1036.2 mb 0.00 in0.0 mm 0.00 in0.0 mm 0.06 in1.5 mm
11:45 PM 34.5°F1.4°C 28.4°F-2.0°C 79% 0.6 mph NW1.0 kmh NW 2.2 mph3.5 kmh 30.60 in1036.2 mb 0.00 in0.0 mm 0.00 in0.0 mm 0.06 in1.5 mm
11:50 PM 34.5°F1.4°C 28.4°F-2.0°C 79% 0.2 mph NNW0.3 kmh NNW 0.9 mph1.4 kmh 30.60 in1036.2 mb 0.00 in0.0 mm 0.00 in0.0 mm 0.06 in1.5 mm
11:55 PM 34.7°F1.5°C 30.2°F-1.0°C 79% 0.2 mph WNW0.3 kmh WNW 0.9 mph1.4 kmh 30.60 in1036.2 mb 0.00 in0.0 mm 0.00 in0.0 mm 0.06 in1.5 mm